createdAt,value
2022-08-23T00:03:16.690Z,14
2022-08-23T00:08:26.905Z,14.2
2022-08-23T00:13:26.922Z,14.2
2022-08-23T00:18:26.922Z,14.1
2022-08-23T00:23:35.250Z,14.2
2022-08-23T00:29:16.753Z,14.2
2022-08-23T00:34:28.464Z,14.2
2022-08-23T00:39:30.995Z,14.4
2022-08-23T00:44:44.936Z,14.4
2022-08-23T00:50:23.725Z,14.1
2022-08-23T00:55:18.868Z,13.9
2022-08-23T01:00:35.251Z,13.9
2022-08-23T01:05:35.300Z,13.9
2022-08-23T01:11:16.758Z,13.9
2022-08-23T01:16:35.250Z,13.9
2022-08-23T01:21:36.523Z,13.8
2022-08-23T01:26:35.319Z,13.9
2022-08-23T01:31:35.323Z,13.7
2022-08-23T01:36:36.110Z,13.7
2022-08-23T01:42:35.292Z,13.6
2022-08-23T01:47:35.313Z,13.6
2022-08-23T01:53:16.766Z,13.4
2022-08-23T01:58:24.086Z,13.5
2022-08-23T02:04:04.801Z,13.3
2022-08-23T02:09:17.754Z,13.4
2022-08-23T02:14:27.841Z,13.2
2022-08-23T02:19:42.795Z,13.2
2022-08-23T02:25:16.886Z,13.1
2022-08-23T02:30:16.786Z,13.1
2022-08-23T02:36:40.498Z,13.1
2022-08-23T02:41:16.994Z,13.2
2022-08-23T02:46:16.994Z,13.2
2022-08-23T02:51:35.318Z,13.3
2022-08-23T02:56:35.354Z,13.3
2022-08-23T03:02:16.911Z,13.4
2022-08-23T03:07:16.812Z,13.3
2022-08-23T03:12:35.374Z,13.1
2022-08-23T03:18:16.894Z,12.6
2022-08-23T03:23:35.326Z,12.1
2022-08-23T03:28:35.364Z,11.9
2022-08-23T03:33:35.353Z,11.8
2022-08-23T03:39:16.796Z,11.9
2022-08-23T03:44:39.454Z,11.7
2022-08-23T03:50:16.780Z,12.2
2022-08-23T03:55:16.793Z,12.5
2022-08-23T04:00:35.339Z,12.6
2022-08-23T04:05:59.097Z,12.5
2022-08-23T04:11:16.772Z,12.6
2022-08-23T04:16:16.825Z,12.7
2022-08-23T04:21:35.321Z,12.7
2022-08-23T04:26:35.321Z,12.7
2022-08-23T04:31:35.345Z,12.9
2022-08-23T04:37:26.784Z,12.7
2022-08-23T04:42:35.338Z,12.7
2022-08-23T04:47:35.337Z,12.8
2022-08-23T04:53:16.818Z,12.8
2022-08-23T04:58:35.341Z,12.8
2022-08-23T05:04:16.818Z,12.8
2022-08-23T05:09:35.325Z,13
2022-08-23T05:14:35.347Z,13
2022-08-23T05:20:16.782Z,13
2022-08-23T05:25:16.808Z,13
2022-08-23T05:30:16.810Z,13.2
2022-08-23T05:35:16.823Z,13.3
2022-08-23T05:40:35.367Z,13.5
2022-08-23T05:46:18.459Z,13.4
2022-08-23T05:51:35.333Z,13.3
2022-08-23T05:57:16.825Z,12.5
2022-08-23T06:02:35.362Z,12.1
2022-08-23T06:08:16.838Z,12.2
2022-08-23T06:13:35.353Z,12.9
2022-08-23T06:19:16.833Z,12.1
2022-08-23T06:25:16.834Z,12.6
2022-08-23T06:30:39.576Z,12
2022-08-23T06:35:39.122Z,11.9
2022-08-23T06:41:16.829Z,12.5
2022-08-23T06:46:16.865Z,12.2
2022-08-23T06:51:35.370Z,12.3
2022-08-23T06:57:16.844Z,12.5
2022-08-23T07:02:16.985Z,13.2
2022-08-23T07:07:41.228Z,13.7
2022-08-23T07:13:18.588Z,13.7
2022-08-23T07:18:16.840Z,13.6
2022-08-23T07:23:35.385Z,13.8
2022-08-23T07:29:16.834Z,13.9
2022-08-23T07:34:22.078Z,13.8
2022-08-23T07:39:35.377Z,14.1
2022-08-23T07:44:35.415Z,14.4
2022-08-23T07:50:16.851Z,14
2022-08-23T07:55:16.866Z,14.5
2022-08-23T08:00:35.395Z,14.9
2022-08-23T08:06:10.053Z,14.8
2022-08-23T08:11:30.773Z,14.2
2022-08-23T08:16:44.031Z,14.2
2022-08-23T08:22:16.868Z,14
2022-08-23T08:27:35.717Z,14.1
2022-08-23T08:33:16.901Z,14.5
2022-08-23T08:38:38.801Z,14.2
2022-08-23T08:44:16.886Z,14.6
2022-08-23T08:49:16.891Z,15.1
2022-08-23T08:54:35.415Z,15.2
2022-08-23T09:00:16.900Z,15.2
2022-08-23T09:05:16.904Z,14.8
2022-08-23T09:10:35.431Z,15.3
2022-08-23T09:16:16.945Z,15.9
2022-08-23T09:21:35.421Z,15.2
2022-08-23T09:26:35.463Z,15.5
2022-08-23T09:32:16.913Z,15.9
2022-08-23T09:37:24.546Z,16
2022-08-23T09:42:35.282Z,14.4
2022-08-23T09:47:38.471Z,15.8
2022-08-23T09:52:56.885Z,15.4
2022-08-23T09:58:13.848Z,16.3
2022-08-23T10:03:16.908Z,15.8
2022-08-23T10:08:16.934Z,15.7
2022-08-23T10:13:35.471Z,16.4
2022-08-23T10:19:16.927Z,16.1
2022-08-23T10:24:35.437Z,16
2022-08-23T10:29:35.474Z,15.9
2022-08-23T10:34:35.465Z,15.7
2022-08-23T10:40:08.139Z,15.6
2022-08-23T10:45:29.143Z,15.6
2022-08-23T10:50:29.655Z,15.4
2022-08-23T10:55:46.654Z,15.5
2022-08-23T11:01:16.990Z,14.9
2022-08-23T11:06:16.952Z,14.5
2022-08-23T11:11:16.973Z,14.6
2022-08-23T11:16:17.085Z,14.9
2022-08-23T11:21:36.322Z,14.9
2022-08-23T11:27:16.982Z,14
2022-08-23T11:32:35.475Z,14.6
2022-08-23T11:37:35.522Z,14.4
2022-08-23T11:43:16.982Z,13.6
2022-08-23T11:48:35.482Z,13.4
2022-08-23T11:53:35.504Z,13.7
2022-08-23T11:58:51.146Z,13.9
2022-08-23T12:04:05.564Z,13.5
2022-08-23T12:09:12.696Z,14.9
2022-08-23T12:15:05.435Z,12.9
2022-08-23T12:20:05.416Z,13.1
2022-08-23T12:25:05.434Z,13.3
2022-08-23T12:30:05.466Z,13.1
2022-08-23T12:35:12.634Z,13.2
2022-08-23T12:41:05.437Z,13.1
2022-08-23T12:46:13.068Z,12.8
2022-08-23T12:52:05.459Z,12.8
2022-08-23T12:57:12.221Z,12.6
2022-08-23T13:02:12.745Z,13.5
2022-08-23T13:08:05.416Z,13.3
2022-08-23T13:13:05.451Z,13.5
2022-08-23T13:18:12.210Z,13.7
2022-08-23T13:23:12.766Z,13.8
2022-08-23T13:29:05.452Z,13.7
2022-08-23T13:34:12.446Z,13.2
2022-08-23T13:39:12.551Z,13.6
2022-08-23T13:44:16.917Z,13.6
2022-08-23T13:50:09.731Z,13.2
2022-08-23T13:55:12.987Z,12.7
2022-08-23T14:01:05.537Z,13.4
2022-08-23T14:06:13.207Z,14
2022-08-23T14:12:05.477Z,14
2022-08-23T14:17:05.503Z,13.7
2022-08-23T14:22:05.483Z,13.3
2022-08-23T14:27:05.480Z,13.7
2022-08-23T14:32:12.811Z,13.4
2022-08-23T14:38:05.631Z,13.3
2022-08-23T14:43:12.965Z,13
2022-08-23T14:49:05.478Z,13.8
2022-08-23T14:54:13.164Z,13.4
2022-08-23T15:00:05.484Z,13.8
2022-08-23T15:05:12.945Z,13.4
2022-08-23T15:16:05.512Z,13.2
2022-08-23T15:21:12.705Z,13.7
2022-08-23T15:27:05.475Z,13.5
2022-08-23T15:32:05.503Z,13.4
2022-08-23T15:37:05.508Z,13.5
2022-08-23T15:42:16.547Z,13.5
2022-08-23T15:48:05.510Z,13.4
2022-08-23T15:53:05.724Z,13.2
2022-08-23T15:58:12.626Z,13.6
2022-08-23T16:03:19.095Z,13.9
2022-08-23T16:09:05.518Z,14.3
2022-08-23T16:14:05.526Z,13.9
2022-08-23T16:19:05.532Z,14
2022-08-23T16:24:05.535Z,14.3
2022-08-23T16:29:12.291Z,14.8
2022-08-23T16:34:12.320Z,14.8
2022-08-23T16:39:13.044Z,14.9
2022-08-23T16:45:05.541Z,14.9
2022-08-23T16:50:12.828Z,14.8
2022-08-23T16:55:12.887Z,14.8
2022-08-23T17:01:05.617Z,15.2
2022-08-23T17:06:12.338Z,14.6
2022-08-23T17:11:18.716Z,15
2022-08-23T17:17:05.549Z,14.7
2022-08-23T17:22:05.574Z,15
2022-08-23T17:27:15.851Z,15.2
2022-08-23T17:32:13.111Z,15.3
2022-08-23T17:38:05.572Z,15.3
2022-08-23T17:43:11.453Z,15
2022-08-23T17:48:12.346Z,15.3
2022-08-23T17:53:13.083Z,15.2
2022-08-23T17:59:05.570Z,15.2
2022-08-23T18:04:12.397Z,15.1
2022-08-23T18:10:05.558Z,15.1
2022-08-23T18:15:05.585Z,15.2
2022-08-23T18:20:05.586Z,15.1
2022-08-23T18:25:12.348Z,15.1
2022-08-23T18:31:05.577Z,15.1
2022-08-23T18:36:05.624Z,15
2022-08-23T18:41:13.283Z,15
2022-08-23T18:47:05.581Z,14.9
2022-08-23T18:52:05.620Z,14.9
2022-08-23T18:57:16.089Z,15
2022-08-23T19:02:13.158Z,14.9
2022-08-23T19:08:05.603Z,15
2022-08-23T19:13:12.777Z,15.1
2022-08-23T19:19:05.585Z,14.7
2022-08-23T19:24:05.603Z,14.8
2022-08-23T19:29:05.640Z,14.8
2022-08-23T19:34:12.925Z,14.8
2022-08-23T19:40:05.611Z,14.8
2022-08-23T19:45:05.622Z,14.7
2022-08-23T19:50:05.615Z,14.8
2022-08-23T19:55:12.380Z,14.9
2022-08-23T20:01:05.701Z,14.8
2022-08-23T20:06:05.647Z,14.8
2022-08-23T20:11:12.398Z,14.8
2022-08-23T20:16:13.248Z,14.8
2022-08-23T20:22:05.651Z,15
2022-08-23T20:27:29.035Z,14.8
2022-08-23T20:33:05.625Z,14.8
2022-08-23T20:38:05.643Z,14.9
2022-08-23T20:43:12.428Z,14.9
2022-08-23T20:49:05.649Z,14.9
2022-08-23T20:54:12.813Z,14.8
2022-08-23T20:59:13.130Z,14.9
2022-08-23T21:05:06.545Z,14.8
2022-08-23T21:10:05.631Z,14.8
2022-08-23T21:15:10.221Z,15
2022-08-23T21:20:07.920Z,14.8
2022-08-23T21:25:05.638Z,14.9
2022-08-23T21:30:05.651Z,15
2022-08-23T21:35:12.564Z,14.9
2022-08-23T21:40:12.845Z,14.9
2022-08-23T21:46:05.720Z,14.9
2022-08-23T21:51:05.651Z,14.9
2022-08-23T21:56:05.681Z,14.9
2022-08-23T22:01:12.483Z,14.9
2022-08-23T22:06:12.461Z,14.8
2022-08-23T22:11:18.100Z,15
2022-08-23T22:17:05.680Z,14.9
2022-08-23T22:22:12.640Z,15
2022-08-23T22:27:13.307Z,15
2022-08-23T22:33:05.672Z,15
2022-08-23T22:38:14.592Z,15.1
2022-08-23T22:44:05.676Z,15.1
2022-08-23T22:49:12.455Z,15.1
2022-08-23T22:54:12.463Z,15.1
2022-08-23T22:59:13.360Z,15.2
2022-08-23T23:05:05.690Z,15.3
2022-08-23T23:10:12.511Z,15.3
2022-08-23T23:16:05.698Z,15.4
2022-08-23T23:22:05.700Z,15.5
2022-08-23T23:27:05.721Z,15.9
2022-08-23T23:32:12.493Z,16.2
2022-08-23T23:37:19.419Z,16.1
2022-08-23T23:43:05.722Z,16.1
2022-08-23T23:48:12.489Z,16.3
2022-08-23T23:54:07.363Z,16
2022-08-23T23:59:05.707Z,15.9
